createdAt,value
2018-04-10T00:00:32.962Z,80.39
2018-04-10T00:01:32.979Z,80.49
2018-04-10T00:02:32.982Z,80.16
2018-04-10T00:03:32.993Z,80.54
2018-04-10T00:04:33.012Z,80.64
2018-04-10T00:05:33.013Z,80.35
2018-04-10T00:06:33.023Z,81.40
2018-04-10T00:07:33.038Z,81.21
2018-04-10T00:08:33.042Z,81.02
2018-04-10T00:09:33.052Z,81.49
2018-04-10T00:10:33.064Z,82.35
2018-04-10T00:11:33.074Z,82.54
2018-04-10T00:12:33.088Z,81.97
2018-04-10T00:13:33.095Z,82.03
2018-04-10T00:14:33.105Z,83.02
2018-04-10T00:15:33.113Z,83.02
2018-04-10T00:16:33.125Z,81.88
2018-04-10T00:17:33.134Z,81.49
2018-04-10T00:18:33.143Z,82.26
2018-04-10T00:19:33.154Z,81.49
2018-04-10T00:20:33.165Z,82.17
2018-04-10T00:21:33.175Z,82.35
2018-04-10T00:22:33.185Z,82.54
2018-04-10T00:23:33.198Z,81.88
2018-04-10T00:24:33.209Z,80.73
2018-04-10T00:25:33.220Z,80.73
2018-04-10T00:26:33.231Z,81.49
2018-04-10T00:27:33.235Z,81.30
2018-04-10T00:28:33.243Z,81.49
2018-04-10T00:29:33.255Z,82.17
2018-04-10T00:30:33.263Z,81.21
2018-04-10T00:31:33.278Z,80.83
2018-04-10T00:32:33.291Z,80.64
2018-04-10T00:33:33.295Z,80.54
2018-04-10T00:34:33.303Z,81.21
2018-04-10T00:35:33.312Z,81.49
2018-04-10T00:36:33.323Z,81.21
2018-04-10T00:37:33.332Z,81.30
2018-04-10T00:38:33.373Z,81.59
2018-04-10T00:39:33.359Z,81.12
2018-04-10T00:40:33.361Z,81.40
2018-04-10T00:41:33.373Z,80.83
2018-04-10T00:42:33.383Z,80.87
2018-04-10T00:43:33.393Z,81.21
2018-04-10T00:44:33.409Z,81.35
2018-04-10T00:45:33.412Z,81.30
2018-04-10T00:46:33.427Z,81.12
2018-04-10T00:47:33.433Z,81.12
2018-04-10T00:48:33.442Z,81.78
2018-04-10T00:49:33.452Z,82.17
2018-04-10T00:50:33.467Z,81.30
2018-04-10T00:51:33.472Z,82.35
2018-04-10T00:52:33.483Z,81.97
2018-04-10T00:53:33.492Z,82.35
2018-04-10T00:54:33.503Z,82.50
2018-04-10T00:55:33.510Z,83.45
2018-04-10T00:56:33.529Z,83.84
2018-04-10T00:57:33.534Z,82.98
2018-04-10T00:58:33.540Z,82.89
2018-04-10T00:59:33.554Z,82.50
2018-04-10T01:00:33.563Z,82.35
2018-04-10T01:01:33.583Z,82.73
2018-04-10T01:02:33.592Z,82.54
2018-04-10T01:03:33.590Z,83.50
2018-04-10T01:04:33.602Z,83.59
2018-04-10T01:05:33.613Z,83.69
2018-04-10T01:06:33.622Z,83.21
2018-04-10T01:07:33.631Z,83.78
2018-04-10T01:08:33.647Z,84.50
2018-04-10T01:09:33.662Z,83.12
2018-04-10T01:10:33.662Z,82.64
2018-04-10T01:11:33.670Z,83.07
2018-04-10T01:12:33.682Z,83.02
2018-04-10T01:13:33.692Z,83.36
2018-04-10T01:14:33.712Z,83.74
2018-04-10T01:15:33.709Z,84.07
2018-04-10T01:16:33.721Z,84.36
2018-04-10T01:17:33.730Z,84.74
2018-04-10T01:18:33.738Z,84.74
2018-04-10T01:19:33.748Z,84.74
2018-04-10T01:20:33.766Z,83.59
2018-04-10T01:21:33.770Z,83.02
2018-04-10T01:22:33.783Z,83.02
2018-04-10T01:23:33.788Z,83.02
2018-04-10T01:24:33.801Z,83.21
2018-04-10T01:25:33.809Z,83.88
2018-04-10T01:26:33.823Z,83.21
2018-04-10T01:27:33.836Z,83.97
2018-04-10T01:28:33.839Z,83.50
2018-04-10T01:29:33.849Z,83.78
2018-04-10T01:30:33.859Z,85.02
2018-04-10T01:31:33.868Z,84.26
2018-04-10T01:32:33.878Z,83.78
2018-04-10T01:33:33.893Z,84.26
2018-04-10T01:34:33.901Z,83.97
2018-04-10T01:35:33.908Z,83.78
2018-04-10T01:36:33.917Z,83.69
2018-04-10T01:37:33.928Z,83.88
2018-04-10T01:38:33.940Z,83.69
2018-04-10T01:39:33.953Z,84.07
2018-04-10T01:40:33.957Z,83.50
2018-04-10T01:41:33.969Z,83.40
2018-04-10T01:42:33.977Z,83.44
2018-04-10T01:43:33.987Z,83.50
2018-04-10T01:44:33.999Z,83.88
2018-04-10T01:45:34.013Z,82.92
2018-04-10T01:46:34.017Z,82.92
2018-04-10T01:47:34.028Z,83.21
2018-04-10T01:48:34.037Z,83.31
2018-04-10T01:49:34.048Z,83.88
2018-04-10T01:50:34.063Z,83.21
2018-04-10T01:51:34.066Z,83.21
2018-04-10T01:52:34.077Z,83.21
2018-04-10T01:53:34.090Z,83.59
2018-04-10T01:54:34.096Z,83.88
2018-04-10T01:55:34.107Z,83.69
2018-04-10T01:56:34.126Z,84.26
2018-04-10T01:57:34.129Z,83.78
2018-04-10T01:58:34.142Z,83.59
2018-04-10T01:59:34.149Z,83.88
2018-04-10T02:00:34.158Z,84.26
2018-04-10T02:01:34.168Z,84.36
2018-04-10T02:02:34.184Z,83.97
2018-04-10T02:03:34.187Z,84.26
2018-04-10T02:04:34.198Z,83.50
2018-04-10T02:05:34.209Z,83.97
2018-04-10T02:06:34.217Z,85.02
2018-04-10T02:07:34.226Z,85.02
2018-04-10T02:08:34.244Z,84.83
2018-04-10T02:09:34.249Z,85.31
2018-04-10T02:10:34.259Z,85.50
2018-04-10T02:11:34.268Z,85.31
2018-04-10T02:12:34.278Z,85.88
2018-04-10T02:13:34.289Z,85.97
2018-04-10T02:14:34.306Z,86.07
2018-04-10T02:15:34.307Z,85.97
2018-04-10T02:16:34.317Z,86.03
2018-04-10T02:17:34.324Z,85.55
2018-04-10T02:18:34.335Z,86.12
2018-04-10T02:19:34.343Z,85.84
2018-04-10T02:20:34.358Z,85.84
2018-04-10T02:21:34.364Z,85.27
2018-04-10T02:22:34.377Z,85.46
2018-04-10T02:23:34.385Z,85.27
2018-04-10T02:24:34.395Z,85.17
2018-04-10T02:25:34.405Z,85.46
2018-04-10T02:26:34.423Z,86.12
2018-04-10T02:27:34.424Z,86.03
2018-04-10T02:28:34.431Z,86.12
2018-04-10T02:29:34.445Z,85.84
2018-04-10T02:30:34.454Z,86.03
2018-04-10T02:31:34.463Z,86.12
2018-04-10T02:32:34.477Z,86.03
2018-04-10T02:33:34.485Z,85.74
2018-04-10T02:34:34.494Z,86.12
2018-04-10T02:35:34.502Z,85.36
2018-04-10T02:36:34.512Z,85.27
2018-04-10T02:37:34.521Z,85.88
2018-04-10T02:38:34.533Z,86.03
2018-04-10T02:39:34.547Z,85.08
2018-04-10T02:40:34.549Z,85.93
2018-04-10T02:41:34.565Z,85.74
2018-04-10T02:42:34.571Z,85.55
2018-04-10T02:43:34.580Z,85.84
2018-04-10T02:44:34.591Z,85.88
2018-04-10T02:45:34.611Z,86.16
2018-04-10T02:46:34.611Z,85.60
2018-04-10T02:47:34.622Z,86.07
2018-04-10T02:48:34.631Z,85.84
2018-04-10T02:49:34.638Z,85.93
2018-04-10T02:50:34.652Z,86.12
2018-04-10T02:51:34.667Z,86.12
2018-04-10T02:52:34.676Z,86.79
2018-04-10T02:53:34.678Z,86.65
2018-04-10T02:54:34.689Z,86.22
2018-04-10T02:55:34.700Z,85.64
2018-04-10T02:56:34.706Z,86.22
2018-04-10T02:57:34.716Z,86.41
2018-04-10T02:58:34.736Z,86.41
2018-04-10T02:59:34.736Z,86.60
2018-04-10T03:00:34.745Z,86.79
2018-04-10T03:01:34.755Z,86.79
2018-04-10T03:02:34.765Z,86.41
2018-04-10T03:03:34.777Z,86.26
2018-04-10T03:04:34.793Z,86.22
2018-04-10T03:05:34.795Z,86.32
2018-04-10T03:06:34.803Z,86.41
2018-04-10T03:07:34.814Z,86.60
2018-04-10T03:08:34.825Z,86.41
2018-04-10T03:09:34.833Z,86.51
2018-04-10T03:10:34.852Z,86.98
2018-04-10T03:11:34.852Z,88.12
2018-04-10T03:12:34.868Z,87.74
2018-04-10T03:13:34.873Z,88.31
2018-04-10T03:14:34.880Z,88.31
2018-04-10T03:15:34.891Z,88.22
2018-04-10T03:16:34.906Z,88.31
2018-04-10T03:17:34.912Z,88.51
2018-04-10T03:18:34.921Z,87.27
2018-04-10T03:19:34.931Z,87.65
2018-04-10T03:20:34.940Z,87.46
2018-04-10T03:21:34.951Z,87.65
2018-04-10T03:22:35.531Z,87.46
2018-04-10T03:23:34.971Z,87.46
2018-04-10T03:24:34.980Z,88.31
2018-04-10T03:25:34.988Z,88.93
2018-04-10T03:26:35.002Z,89.32
2018-04-10T03:27:35.006Z,89.26
2018-04-10T03:28:35.028Z,89.07
2018-04-10T03:29:35.028Z,88.60
2018-04-10T03:30:35.039Z,88.75
2018-04-10T03:31:35.046Z,88.98
2018-04-10T03:32:35.056Z,89.03
2018-04-10T03:33:35.070Z,89.46
2018-04-10T03:34:35.086Z,89.41
2018-04-10T03:35:35.089Z,89.46
2018-04-10T03:36:35.097Z,89.17
2018-04-10T03:37:35.106Z,88.98
2018-04-10T03:38:35.116Z,88.60
2018-04-10T03:39:35.132Z,88.60
2018-04-10T03:40:35.134Z,89.75
2018-04-10T03:41:35.144Z,90.79
2018-04-10T03:42:35.158Z,91.08
2018-04-10T03:43:35.162Z,91.17
2018-04-10T03:44:35.170Z,91.65
2018-04-10T03:45:35.181Z,90.98
2018-04-10T03:46:35.203Z,91.46
2018-04-10T03:47:35.199Z,91.84
2018-04-10T03:48:35.210Z,91.74
2018-04-10T03:49:35.219Z,92.60
2018-04-10T03:50:35.229Z,91.17
2018-04-10T03:51:35.237Z,91.55
2018-04-10T03:52:35.254Z,91.36
2018-04-10T03:53:35.259Z,92.13
2018-04-10T03:54:35.269Z,90.89
2018-04-10T03:55:35.277Z,90.98
2018-04-10T03:56:35.293Z,91.36
2018-04-10T03:57:35.296Z,91.36
2018-04-10T03:58:35.314Z,90.60
2018-04-10T03:59:35.327Z,90.89
2018-04-10T04:00:35.325Z,90.50
2018-04-10T04:01:35.335Z,90.50
2018-04-10T04:02:35.345Z,91.27
2018-04-10T04:03:35.353Z,91.74
2018-04-10T04:04:35.368Z,90.60
2018-04-10T04:05:35.373Z,91.27
2018-04-10T04:06:35.383Z,91.46
2018-04-10T04:07:35.392Z,91.74
2018-04-10T04:08:35.403Z,91.65
2018-04-10T04:09:35.412Z,91.84
2018-04-10T04:10:35.431Z,91.46
2018-04-10T04:11:35.431Z,91.46
2018-04-10T04:12:35.439Z,90.98
2018-04-10T04:13:35.447Z,90.70
2018-04-10T04:14:35.459Z,90.03
2018-04-10T04:15:35.466Z,89.46
2018-04-10T04:16:35.480Z,90.12
2018-04-10T04:17:35.490Z,89.75
2018-04-10T04:18:35.498Z,89.94
2018-04-10T04:19:35.509Z,90.08
2018-04-10T04:20:35.519Z,90.27
2018-04-10T04:21:35.525Z,91.41
2018-04-10T04:22:35.531Z,90.84
2018-04-10T04:23:35.549Z,91.03
2018-04-10T04:24:35.552Z,91.03
2018-04-10T04:25:35.565Z,91.70
2018-04-10T04:26:35.572Z,91.70
2018-04-10T04:27:35.588Z,91.79
2018-04-10T04:28:35.591Z,92.08
2018-04-10T04:29:35.610Z,92.36
2018-04-10T04:30:35.609Z,92.84
2018-04-10T04:31:35.618Z,93.22
2018-04-10T04:32:35.643Z,92.46
2018-04-10T04:33:35.637Z,92.65
2018-04-10T04:34:35.648Z,92.18
2018-04-10T04:35:35.665Z,92.74
2018-04-10T04:36:35.664Z,92.94
2018-04-10T04:37:35.675Z,92.65
2018-04-10T04:38:35.688Z,92.74
2018-04-10T04:39:35.695Z,92.18
2018-04-10T04:40:35.706Z,92.46
2018-04-10T04:41:35.720Z,92.08
2018-04-10T04:42:35.730Z,91.99
2018-04-10T04:43:35.732Z,92.36
2018-04-10T04:44:35.744Z,93.03
2018-04-10T04:45:35.751Z,91.99
2018-04-10T04:46:35.765Z,91.79
2018-04-10T04:47:35.777Z,92.60
2018-04-10T04:48:35.782Z,93.08
2018-04-10T04:49:35.790Z,93.37
2018-04-10T04:50:35.801Z,93.03
2018-04-10T04:51:35.807Z,92.84
2018-04-10T04:52:35.818Z,91.99
2018-04-10T04:53:35.833Z,92.27
2018-04-10T04:54:35.837Z,91.89
2018-04-10T04:55:35.844Z,91.79
2018-04-10T04:56:35.858Z,91.79
2018-04-10T04:57:35.866Z,91.65
2018-04-10T04:58:35.879Z,92.41
2018-04-10T04:59:35.930Z,92.41
2018-04-10T05:00:35.892Z,92.79
2018-04-10T05:01:35.908Z,92.99
2018-04-10T05:02:35.910Z,93.46
2018-04-10T05:03:35.921Z,93.55
2018-04-10T05:04:35.931Z,93.37
2018-04-10T05:05:35.947Z,92.79
2018-04-10T05:06:35.948Z,92.99
2018-04-10T05:07:35.958Z,93.08
2018-04-10T05:08:35.967Z,92.99
2018-04-10T05:09:35.976Z,93.37
2018-04-10T05:10:35.984Z,93.41
2018-04-10T05:11:35.997Z,93.41
2018-04-10T05:12:36.008Z,93.41
2018-04-10T05:13:36.016Z,92.89
2018-04-10T05:14:36.022Z,93.46
2018-04-10T05:15:36.033Z,93.08
2018-04-10T05:16:36.042Z,92.60
2018-04-10T05:17:36.058Z,92.70
2018-04-10T05:18:36.061Z,92.84
2018-04-10T05:19:36.075Z,92.94
2018-04-10T05:20:36.079Z,92.94
2018-04-10T05:21:36.091Z,92.08
2018-04-10T05:22:36.097Z,92.08
2018-04-10T05:23:36.114Z,92.65
2018-04-10T05:24:36.118Z,92.27
2018-04-10T05:25:36.126Z,92.74
2018-04-10T05:26:36.138Z,93.03
2018-04-10T05:27:36.144Z,93.41
2018-04-10T05:28:36.153Z,93.13
2018-04-10T05:29:36.169Z,93.41
2018-04-10T05:30:36.172Z,93.32
2018-04-10T05:31:36.182Z,93.22
2018-04-10T05:32:36.194Z,93.60
2018-04-10T05:33:36.203Z,93.41
2018-04-10T05:34:36.213Z,93.13
2018-04-10T05:35:36.228Z,93.32
2018-04-10T05:36:36.228Z,93.46
2018-04-10T05:37:36.240Z,93.37
2018-04-10T05:38:36.248Z,93.55
2018-04-10T05:39:36.300Z,93.46
2018-04-10T05:40:36.266Z,93.32
2018-04-10T05:41:36.286Z,93.93
2018-04-10T05:42:36.288Z,94.79
2018-04-10T05:43:36.295Z,94.60
2018-04-10T05:44:36.307Z,94.70
2018-04-10T05:45:36.315Z,94.51
2018-04-10T05:46:36.324Z,94.32
2018-04-10T05:47:36.346Z,94.41
2018-04-10T05:48:36.345Z,94.70
2018-04-10T05:49:36.355Z,94.89
2018-04-10T05:50:36.362Z,95.08
2018-04-10T05:51:36.373Z,94.79
2018-04-10T05:52:36.382Z,95.17
2018-04-10T05:53:36.396Z,95.08
2018-04-10T05:54:36.400Z,95.03
2018-04-10T05:55:36.408Z,94.93
2018-04-10T05:56:36.420Z,94.51
2018-04-10T05:57:36.432Z,94.51
2018-04-10T05:58:36.443Z,93.98
2018-04-10T05:59:36.452Z,93.60
2018-04-10T06:00:36.466Z,93.12
2018-04-10T06:01:36.469Z,92.74
2018-04-10T06:02:36.480Z,92.17
2018-04-10T06:03:36.485Z,92.27
2018-04-10T06:04:36.499Z,92.65
2018-04-10T06:05:36.511Z,92.93
2018-04-10T06:06:36.524Z,92.84
2018-04-10T06:07:36.527Z,93.51
2018-04-10T06:08:36.538Z,93.51
2018-04-10T06:09:36.547Z,95.03
2018-04-10T06:10:36.555Z,94.74
2018-04-10T06:11:36.568Z,94.93
2018-04-10T06:12:36.576Z,94.84
2018-04-10T06:13:36.587Z,94.65
2018-04-10T06:14:36.595Z,94.93
2018-04-10T06:15:36.604Z,94.84
2018-04-10T06:16:36.615Z,94.08
2018-04-10T06:17:36.629Z,93.79
2018-04-10T06:18:36.637Z,94.37
2018-04-10T06:19:36.643Z,93.98
2018-04-10T06:20:36.654Z,93.98
2018-04-10T06:21:36.664Z,93.60
2018-04-10T06:22:36.675Z,94.03
2018-04-10T06:23:36.692Z,93.55
2018-04-10T06:24:36.695Z,92.98
2018-04-10T06:25:36.705Z,92.22
2018-04-10T06:26:36.714Z,92.50
2018-04-10T06:27:36.723Z,92.41
2018-04-10T06:28:36.735Z,92.12
2018-04-10T06:29:36.742Z,92.46
2018-04-10T06:30:36.763Z,92.46
2018-04-10T06:31:36.764Z,92.17
2018-04-10T06:32:36.779Z,92.17
2018-04-10T06:33:36.785Z,92.55
2018-04-10T06:34:36.793Z,92.46
2018-04-10T06:35:36.805Z,92.93
2018-04-10T06:36:36.819Z,92.93
2018-04-10T06:37:36.825Z,92.83
2018-04-10T06:38:36.837Z,93.51
2018-04-10T06:39:36.844Z,93.12
2018-04-10T06:40:36.854Z,92.26
2018-04-10T06:41:36.868Z,92.46
2018-04-10T06:42:36.888Z,92.36
2018-04-10T06:43:36.888Z,92.69
2018-04-10T06:44:36.896Z,92.21
2018-04-10T06:45:36.908Z,92.12
2018-04-10T06:46:36.920Z,92.41
2018-04-10T06:47:36.934Z,93.07
2018-04-10T06:48:36.941Z,92.97
2018-04-10T06:49:36.955Z,92.31
2018-04-10T06:50:36.961Z,92.79
2018-04-10T06:51:36.970Z,92.79
2018-04-10T06:52:36.980Z,93.17
2018-04-10T06:53:36.989Z,92.69
2018-04-10T06:54:37.029Z,92.83
2018-04-10T06:55:37.010Z,92.21
2018-04-10T06:56:37.026Z,91.97
2018-04-10T06:57:37.032Z,92.64
2018-04-10T06:58:37.043Z,93.31
2018-04-10T06:59:37.052Z,93.70
2018-04-10T07:00:37.071Z,94.17
2018-04-10T07:01:37.121Z,93.98
2018-04-10T07:02:37.086Z,93.31
2018-04-10T07:03:37.094Z,93.12
2018-04-10T07:04:37.104Z,93.60
2018-04-10T07:05:37.116Z,93.88
2018-04-10T07:06:37.133Z,93.12
2018-04-10T07:07:37.137Z,93.79
2018-04-10T07:08:37.151Z,94.27
2018-04-10T07:09:37.157Z,93.88
2018-04-10T07:10:37.174Z,93.98
2018-04-10T07:11:37.181Z,95.22
2018-04-10T07:12:37.195Z,95.70
2018-04-10T07:13:37.208Z,93.60
2018-04-10T07:14:37.214Z,94.27
2018-04-10T07:15:37.228Z,94.07
2018-04-10T07:16:37.232Z,93.70
2018-04-10T07:17:37.243Z,94.07
2018-04-10T07:18:37.258Z,94.17
2018-04-10T07:19:37.264Z,94.22
2018-04-10T07:20:37.279Z,94.79
2018-04-10T07:21:37.289Z,93.88
2018-04-10T07:22:37.301Z,94.46
2018-04-10T07:23:37.311Z,93.26
2018-04-10T07:24:37.329Z,93.02
2018-04-10T07:25:37.331Z,94.12
2018-04-10T07:26:37.347Z,95.07
2018-04-10T07:27:37.355Z,93.65
2018-04-10T07:28:37.365Z,92.59
2018-04-10T07:29:37.377Z,92.59
2018-04-10T07:30:37.390Z,90.88
2018-04-10T07:31:37.397Z,90.97
2018-04-10T07:32:37.408Z,90.25
2018-04-10T07:33:37.421Z,90.16
2018-04-10T07:34:37.431Z,90.44
2018-04-10T07:35:37.443Z,90.63
2018-04-10T07:36:37.463Z,88.91
2018-04-10T07:37:37.462Z,89.29
2018-04-10T07:38:37.477Z,88.81
2018-04-10T07:39:37.536Z,87.95
2018-04-10T07:40:37.498Z,88.05
2018-04-10T07:41:37.510Z,87.00
2018-04-10T07:42:37.527Z,86.28
2018-04-10T07:43:37.534Z,84.94
2018-04-10T07:44:37.543Z,85.89
2018-04-10T07:45:37.554Z,86.37
2018-04-10T07:46:37.567Z,87.23
2018-04-10T07:47:37.578Z,87.90
2018-04-10T07:48:37.594Z,87.81
2018-04-10T07:49:37.599Z,87.14
2018-04-10T07:50:37.611Z,86.94
2018-04-10T07:51:37.620Z,86.08
2018-04-10T07:52:37.633Z,86.57
2018-04-10T07:53:37.645Z,87.86
2018-04-10T07:54:37.671Z,87.86
2018-04-10T07:55:37.674Z,87.00
2018-04-10T07:56:37.679Z,87.14
2018-04-10T07:57:37.691Z,88.09
2018-04-10T07:58:37.737Z,88.09
2018-04-10T07:59:37.712Z,87.04
2018-04-10T08:00:37.770Z,85.61
2018-04-10T08:01:37.739Z,84.27
2018-04-10T08:02:37.747Z,84.17
2018-04-10T08:03:37.772Z,83.22
2018-04-10T08:04:37.772Z,83.50
2018-04-10T08:05:37.804Z,84.17
2018-04-10T08:06:37.812Z,84.98
2018-04-10T08:07:37.807Z,84.94
2018-04-10T08:08:37.818Z,85.27
2018-04-10T08:09:37.834Z,83.36
2018-04-10T08:10:37.847Z,82.97
2018-04-10T08:11:37.857Z,82.78
2018-04-10T08:12:37.873Z,82.01
2018-04-10T08:13:37.884Z,82.78
2018-04-10T08:14:37.893Z,83.93
2018-04-10T08:15:37.901Z,83.45
2018-04-10T08:16:37.916Z,83.64
2018-04-10T08:17:37.926Z,84.35
2018-04-10T08:18:37.949Z,83.39
2018-04-10T08:19:37.957Z,82.92
2018-04-10T08:20:37.967Z,80.71
2018-04-10T08:21:37.974Z,81.20
2018-04-10T08:22:37.987Z,82.53
2018-04-10T08:23:37.999Z,82.92
2018-04-10T08:24:38.017Z,81.57
2018-04-10T08:25:38.024Z,81.10
2018-04-10T08:26:38.032Z,81.38
2018-04-10T08:27:38.043Z,80.71
2018-04-10T08:28:38.056Z,80.71
2018-04-10T08:29:38.067Z,79.51
2018-04-10T08:30:38.084Z,78.55
2018-04-10T08:31:38.110Z,77.59
2018-04-10T08:32:38.104Z,77.97
2018-04-10T08:33:38.115Z,76.73
2018-04-10T08:34:38.129Z,77.11
2018-04-10T08:35:38.142Z,78.36
2018-04-10T08:36:38.155Z,76.35
2018-04-10T08:37:38.163Z,75.58
2018-04-10T08:38:38.178Z,75.10
2018-04-10T08:39:38.206Z,75.87
2018-04-10T08:40:38.201Z,75.01
2018-04-10T08:41:38.213Z,74.62
2018-04-10T08:42:38.272Z,74.82
2018-04-10T08:43:38.239Z,75.39
2018-04-10T08:44:38.249Z,74.33
2018-04-10T08:45:38.264Z,75.68
2018-04-10T08:46:38.275Z,75.87
2018-04-10T08:47:38.288Z,75.68
2018-04-10T08:48:38.299Z,75.58
2018-04-10T08:49:38.323Z,74.72
2018-04-10T08:50:38.322Z,74.24
2018-04-10T08:51:38.342Z,74.52
2018-04-10T08:52:38.345Z,72.23
2018-04-10T08:53:38.361Z,71.75
2018-04-10T08:54:38.375Z,71.94
2018-04-10T08:55:38.384Z,72.23
2018-04-10T08:56:38.403Z,72.80
2018-04-10T08:57:38.406Z,72.23
2018-04-10T08:58:38.421Z,72.99
2018-04-10T08:59:38.431Z,72.90
2018-04-10T09:00:38.444Z,73.95
2018-04-10T09:01:38.457Z,73.61
2018-04-10T09:02:38.471Z,73.41
2018-04-10T09:03:38.482Z,73.51
2018-04-10T09:04:38.493Z,74.08
2018-04-10T09:05:38.504Z,73.51
2018-04-10T09:06:38.520Z,73.22
2018-04-10T09:07:38.530Z,72.84
2018-04-10T09:08:38.577Z,73.13
2018-04-10T09:09:38.556Z,72.45
2018-04-10T09:10:38.567Z,72.36
2018-04-10T09:11:38.582Z,72.88
2018-04-10T09:12:38.590Z,72.01
2018-04-10T09:13:38.604Z,72.36
2018-04-10T09:14:38.617Z,73.22
2018-04-10T09:15:38.629Z,72.36
2018-04-10T09:16:38.645Z,72.55
2018-04-10T09:17:38.655Z,72.11
2018-04-10T09:18:38.667Z,70.35
2018-04-10T09:19:38.678Z,71.63
2018-04-10T09:20:38.691Z,72.97
2018-04-10T09:21:38.703Z,72.30
2018-04-10T09:22:38.722Z,70.86
2018-04-10T09:23:38.730Z,72.39
2018-04-10T09:24:38.741Z,73.45
2018-04-10T09:25:38.753Z,71.25
2018-04-10T09:26:38.765Z,72.30
2018-04-10T09:27:38.780Z,72.14
2018-04-10T09:28:38.800Z,71.57
2018-04-10T09:29:39.390Z,73.00
2018-04-10T09:30:38.816Z,73.58
2018-04-10T09:31:38.827Z,72.72
2018-04-10T09:32:38.855Z,72.63
2018-04-10T09:33:38.853Z,71.95
2018-04-10T09:34:38.871Z,71.47
2018-04-10T09:35:38.879Z,71.76
2018-04-10T09:36:38.894Z,70.61
2018-04-10T09:37:38.910Z,71.09
2018-04-10T09:38:38.918Z,71.95
2018-04-10T09:39:38.930Z,72.33
2018-04-10T09:40:38.958Z,70.42
2018-04-10T09:41:38.957Z,70.51
2018-04-10T09:42:38.969Z,71.66
2018-04-10T09:43:39.050Z,72.24
2018-04-10T09:44:38.996Z,70.13
2018-04-10T09:45:39.010Z,71.47
2018-04-10T09:46:39.030Z,72.63
2018-04-10T09:47:39.035Z,73.10
2018-04-10T09:48:39.048Z,71.19
2018-04-10T09:49:39.059Z,70.13
2018-04-10T09:50:39.077Z,68.40
2018-04-10T09:51:39.089Z,68.12
2018-04-10T09:52:39.103Z,67.96
2018-04-10T09:53:39.145Z,67.67
2018-04-10T09:54:39.130Z,67.76
2018-04-10T09:55:39.142Z,67.00
2018-04-10T09:56:39.158Z,68.82
2018-04-10T09:57:39.166Z,67.90
2018-04-10T09:58:39.195Z,68.76
2018-04-10T09:59:39.193Z,67.70
2018-04-10T10:00:39.208Z,67.09
2018-04-10T10:01:39.224Z,66.36
2018-04-10T10:02:39.235Z,66.42
2018-04-10T10:03:39.248Z,66.26
2018-04-10T10:04:39.268Z,65.17
2018-04-10T10:05:39.273Z,63.92
2018-04-10T10:06:39.290Z,64.50
2018-04-10T10:07:39.300Z,64.25
2018-04-10T10:08:39.318Z,64.05
2018-04-10T10:09:39.328Z,64.69
2018-04-10T10:10:39.359Z,65.08
2018-04-10T10:11:39.355Z,65.75
2018-04-10T10:12:39.369Z,65.36
2018-04-10T10:13:39.384Z,64.63
2018-04-10T10:14:39.398Z,63.96
2018-04-10T10:15:39.408Z,65.11
2018-04-10T10:16:39.428Z,63.38
2018-04-10T10:17:39.439Z,62.93
2018-04-10T10:18:39.450Z,64.09
2018-04-10T10:19:39.472Z,65.14
2018-04-10T10:20:39.500Z,66.77
2018-04-10T10:21:39.496Z,68.70
2018-04-10T10:22:39.514Z,66.30
2018-04-10T10:23:39.540Z,66.77
2018-04-10T10:24:39.533Z,62.93
2018-04-10T10:25:39.548Z,61.87
2018-04-10T10:26:39.563Z,63.70
2018-04-10T10:27:39.580Z,62.48
2018-04-10T10:28:39.596Z,61.43
2018-04-10T10:29:39.604Z,60.56
2018-04-10T10:30:39.622Z,60.94
2018-04-10T10:31:39.631Z,61.23
2018-04-10T10:32:39.646Z,62.48
2018-04-10T10:33:39.664Z,64.22
2018-04-10T10:34:39.686Z,62.58
2018-04-10T10:35:39.688Z,61.23
2018-04-10T10:36:39.706Z,60.21
2018-04-10T10:37:39.719Z,61.16
2018-04-10T10:38:39.733Z,60.69
2018-04-10T10:39:39.746Z,60.01
2018-04-10T10:40:39.768Z,61.61
2018-04-10T10:41:39.774Z,61.43
2018-04-10T10:42:39.791Z,59.79
2018-04-10T10:43:39.804Z,61.94
2018-04-10T10:44:39.818Z,65.69
2018-04-10T10:45:39.833Z,62.80
2018-04-10T10:46:39.855Z,63.95
2018-04-10T10:47:39.867Z,65.40
2018-04-10T10:48:39.882Z,63.12
2018-04-10T10:49:39.895Z,63.60
2018-04-10T10:50:39.913Z,63.12
2018-04-10T10:51:39.925Z,61.97
2018-04-10T10:52:39.952Z,59.88
2018-04-10T10:53:39.952Z,60.36
2018-04-10T10:54:39.974Z,59.40
2018-04-10T10:55:39.988Z,60.07
2018-04-10T10:56:40.000Z,60.36
2018-04-10T10:57:40.014Z,60.13
2018-04-10T10:58:40.045Z,61.10
2018-04-10T10:59:40.045Z,58.26
2018-04-10T11:00:40.066Z,56.20
2018-04-10T11:01:40.079Z,52.26
2018-04-10T11:02:40.097Z,52.29
2018-04-10T11:03:40.110Z,51.83
2018-04-10T11:04:40.133Z,50.28
2018-04-10T11:05:40.144Z,47.50
2018-04-10T11:06:40.163Z,46.77
2018-04-10T11:07:40.180Z,47.96
2018-04-10T11:08:40.199Z,46.33
2018-04-10T11:09:40.232Z,46.65
2018-04-10T11:10:40.239Z,46.82
2018-04-10T11:11:40.254Z,44.92
2018-04-10T11:12:40.275Z,44.07
2018-04-10T11:13:40.295Z,43.61
2018-04-10T11:14:40.318Z,42.64
2018-04-10T11:15:40.343Z,41.30
2018-04-10T11:16:40.363Z,40.97
2018-04-10T11:17:40.383Z,40.58
2018-04-10T11:18:40.399Z,39.90
2018-04-10T11:19:40.420Z,39.72
2018-04-10T11:20:40.440Z,38.21
2018-04-10T11:21:40.463Z,37.84
2018-04-10T11:22:40.494Z,37.06
2018-04-10T11:23:40.506Z,34.80
2018-04-10T11:24:40.532Z,36.28
2018-04-10T11:25:40.553Z,38.44
2018-04-10T11:26:40.575Z,39.88
2018-04-10T11:27:40.600Z,37.37
2018-04-10T11:28:40.633Z,38.32
2018-04-10T11:29:40.647Z,36.40
2018-04-10T11:30:40.674Z,36.40
2018-04-10T11:31:40.693Z,36.20
2018-04-10T11:32:40.719Z,36.41
2018-04-10T11:33:40.742Z,35.03
2018-04-10T11:34:40.772Z,35.83
2018-04-10T11:35:40.789Z,33.80
2018-04-10T11:36:40.816Z,33.70
2018-04-10T11:37:40.841Z,33.82
2018-04-10T11:38:40.865Z,36.27
2018-04-10T11:39:40.886Z,35.80
2018-04-10T11:40:40.922Z,35.85
2018-04-10T11:41:40.938Z,34.59
2018-04-10T11:42:40.962Z,38.24
2018-04-10T11:43:40.987Z,37.72
2018-04-10T11:44:41.014Z,39.03
2018-04-10T11:45:41.040Z,36.10
2018-04-10T11:46:41.066Z,37.34
2018-04-10T11:47:41.086Z,37.29
2018-04-10T11:48:41.137Z,39.80
2018-04-10T11:49:41.140Z,40.29
2018-04-10T11:50:41.162Z,34.19
2018-04-10T11:51:41.188Z,34.86
2018-04-10T11:52:41.218Z,34.58
2018-04-10T11:53:41.241Z,33.25
2018-04-10T11:54:41.316Z,33.64
2018-04-10T11:55:41.290Z,34.58
2018-04-10T11:56:41.319Z,33.82
2018-04-10T11:57:41.343Z,36.96
2018-04-10T11:58:41.382Z,31.70
2018-04-10T11:59:41.396Z,30.57
2018-04-10T12:00:41.422Z,31.75
2018-04-10T12:01:41.450Z,30.38
2018-04-10T12:02:41.517Z,31.28
2018-04-10T12:03:41.507Z,30.55
2018-04-10T12:04:41.535Z,32.71
2018-04-10T12:05:41.554Z,33.11
2018-04-10T12:06:41.585Z,31.36
2018-04-10T12:07:41.609Z,27.66
2018-04-10T12:08:41.635Z,27.38
2018-04-10T12:09:41.663Z,26.50
2018-04-10T12:10:41.700Z,28.86
2018-04-10T12:11:41.716Z,29.36
2018-04-10T12:12:41.744Z,28.42
2018-04-10T12:13:41.772Z,28.83
2018-04-10T12:14:41.796Z,27.49
2018-04-10T12:15:41.825Z,27.38
2018-04-10T12:16:41.864Z,27.31
2018-04-10T12:17:41.886Z,27.33
2018-04-10T12:18:41.908Z,25.37
2018-04-10T12:19:41.933Z,25.07
2018-04-10T12:20:41.963Z,26.45
2018-04-10T12:21:41.991Z,25.39
2018-04-10T12:22:42.022Z,25.20
2018-04-10T12:23:42.046Z,24.21
2018-04-10T12:24:42.074Z,24.79
2018-04-10T12:25:42.102Z,24.20
2018-04-10T12:26:42.132Z,25.46
2018-04-10T12:27:42.157Z,25.57
2018-04-10T12:28:42.193Z,25.56
2018-04-10T12:29:42.214Z,25.55
2018-04-10T12:30:42.260Z,25.94
2018-04-10T12:31:42.270Z,27.29
2018-04-10T12:32:42.298Z,26.81
2018-04-10T12:33:42.332Z,26.20
2018-04-10T12:34:42.354Z,27.37
2018-04-10T12:35:42.380Z,27.84
2018-04-10T12:36:42.424Z,25.70
2018-04-10T12:37:42.436Z,26.17
2018-04-10T12:38:42.466Z,27.26
2018-04-10T12:39:42.492Z,24.93
2018-04-10T12:40:42.528Z,25.35
2018-04-10T12:41:42.545Z,24.37
2018-04-10T12:42:42.574Z,23.79
2018-04-10T12:43:42.600Z,25.65
2018-04-10T12:44:42.629Z,24.86
2018-04-10T12:45:42.656Z,22.12
2018-04-10T12:46:42.690Z,24.38
2018-04-10T12:47:42.711Z,24.11
2018-04-10T12:48:42.740Z,21.26
2018-04-10T12:49:42.770Z,21.08
2018-04-10T12:50:42.795Z,22.26
2018-04-10T12:51:42.824Z,20.51
2018-04-10T12:52:42.886Z,20.12